createdAt,value
2022-09-27T00:00:23.417Z,15.07
2022-09-27T00:03:25.859Z,15.07
2022-09-27T00:06:30.348Z,13.68
2022-09-27T00:09:32.895Z,14.75
2022-09-27T00:12:35.602Z,15.15
2022-09-27T00:15:37.889Z,14.67
2022-09-27T00:18:40.245Z,15.73
2022-09-27T00:21:43.591Z,14.90
2022-09-27T00:24:45.978Z,16.15
2022-09-27T00:27:48.332Z,17.25
2022-09-27T00:30:50.784Z,16.13
2022-09-27T00:33:53.682Z,16.48
2022-09-27T00:36:56.083Z,16.98
2022-09-27T00:39:58.625Z,17.90
2022-09-27T00:43:01.095Z,15.98
2022-09-27T00:46:04.400Z,15.60
2022-09-27T00:49:33.192Z,16.48
2022-09-27T00:52:47.040Z,16.58
2022-09-27T00:55:56.168Z,17.27
2022-09-27T00:59:09.145Z,17.98
2022-09-27T01:02:11.991Z,17.00
2022-09-27T01:05:15.778Z,17.23
2022-09-27T01:08:18.102Z,17.48
2022-09-27T01:11:38.948Z,16.55
2022-09-27T01:15:15.724Z,16.85
2022-09-27T01:18:39.199Z,15.67
2022-09-27T01:21:56.343Z,16.20
2022-09-27T01:25:15.429Z,16.75
2022-09-27T01:28:36.433Z,15.68
2022-09-27T01:31:44.357Z,16.92
2022-09-27T01:34:59.437Z,16.47
2022-09-27T01:38:26.589Z,15.65
2022-09-27T01:41:47.106Z,15.95
2022-09-27T01:45:15.475Z,15.68
2022-09-27T01:48:34.339Z,15.52
2022-09-27T01:51:52.529Z,15.87
2022-09-27T01:54:57.201Z,14.82
2022-09-27T01:58:14.731Z,16.35
2022-09-27T02:01:22.050Z,15.90
2022-09-27T02:04:28.969Z,16.75
2022-09-27T02:08:00.401Z,14.80
2022-09-27T02:11:06.394Z,16.65
2022-09-27T02:14:23.116Z,16.20
2022-09-27T02:17:52.409Z,15.23
2022-09-27T02:20:57.254Z,15.55
2022-09-27T02:24:01.381Z,15.47
2022-09-27T02:27:17.447Z,15.30
2022-09-27T02:30:20.350Z,16.02
2022-09-27T02:33:31.806Z,14.10
2022-09-27T02:36:34.844Z,14.60
2022-09-27T02:39:37.322Z,14.07
2022-09-27T02:42:43.303Z,15.75
2022-09-27T02:46:04.798Z,14.90
2022-09-27T02:49:10.833Z,14.82
2022-09-27T02:52:28.834Z,15.35
2022-09-27T02:55:39.084Z,14.60
2022-09-27T02:59:37.227Z,14.43
2022-09-27T03:02:52.004Z,14.88
2022-09-27T03:06:12.453Z,14.88
2022-09-27T03:09:22.931Z,15.75
2022-09-27T03:12:28.151Z,13.70
2022-09-27T03:15:30.932Z,15.15
2022-09-27T03:18:36.193Z,16.40
2022-09-27T03:21:56.896Z,15.75
2022-09-27T03:24:59.508Z,16.58
2022-09-27T03:28:02.107Z,17.43
2022-09-27T03:31:05.172Z,16.30
2022-09-27T03:34:22.273Z,17.65
2022-09-27T03:37:24.638Z,16.25
2022-09-27T03:40:27.030Z,16.35
2022-09-27T03:43:29.689Z,16.70
2022-09-27T03:46:35.331Z,16.02
2022-09-27T03:49:37.892Z,17.17
2022-09-27T03:52:40.646Z,15.20
2022-09-27T03:55:45.915Z,14.65
2022-09-27T03:58:48.594Z,14.90
2022-09-27T04:01:52.016Z,13.90
2022-09-27T04:05:15.140Z,15.00
2022-09-27T04:08:17.531Z,14.38
2022-09-27T04:11:20.036Z,14.77
2022-09-27T04:14:22.612Z,14.90
2022-09-27T04:17:45.162Z,14.32
2022-09-27T04:21:13.649Z,15.23
2022-09-27T04:24:22.662Z,16.88
2022-09-27T04:27:45.956Z,17.38
2022-09-27T04:30:49.106Z,17.80
2022-09-27T04:34:46.080Z,18.88
2022-09-27T04:37:56.169Z,19.63
2022-09-27T04:41:02.142Z,19.67
2022-09-27T04:44:08.582Z,18.92
2022-09-27T04:47:10.983Z,20.13
2022-09-27T04:50:14.542Z,19.52
2022-09-27T04:53:37.029Z,20.17
2022-09-27T04:56:39.450Z,19.95
2022-09-27T04:59:42.948Z,19.75
2022-09-27T05:02:48.612Z,19.07
2022-09-27T05:06:20.263Z,16.95
2022-09-27T05:09:23.053Z,19.50
2022-09-27T05:12:28.002Z,14.93
2022-09-27T05:15:36.350Z,16.65
2022-09-27T05:18:57.855Z,15.20
2022-09-27T05:22:32.553Z,15.73
2022-09-27T05:25:35.203Z,15.05
2022-09-27T05:28:37.551Z,18.20
2022-09-27T05:31:39.923Z,16.17
2022-09-27T05:34:42.788Z,18.63
2022-09-27T05:37:54.395Z,16.80
2022-09-27T05:40:57.498Z,17.48
2022-09-27T05:44:01.229Z,16.63
2022-09-27T05:47:04.478Z,16.58
2022-09-27T05:50:08.959Z,18.97
2022-09-27T05:53:11.567Z,19.05
2022-09-27T05:56:14.115Z,16.83
2022-09-27T05:59:35.025Z,15.15
2022-09-27T06:03:03.218Z,13.80
2022-09-27T06:06:24.236Z,13.60
2022-09-27T06:09:31.458Z,13.73
2022-09-27T06:12:34.490Z,14.40
2022-09-27T06:15:41.668Z,14.93
2022-09-27T06:18:45.116Z,14.98
2022-09-27T06:21:50.929Z,16.13
2022-09-27T06:24:53.575Z,16.02
2022-09-27T06:27:59.313Z,16.08
2022-09-27T06:31:06.284Z,17.25
2022-09-27T06:34:16.773Z,16.05
2022-09-27T06:37:19.383Z,16.50
2022-09-27T06:40:22.740Z,16.92
2022-09-27T06:43:54.502Z,14.80
2022-09-27T06:47:39.727Z,15.57
2022-09-27T06:51:05.751Z,14.98
2022-09-27T06:54:15.115Z,15.13
2022-09-27T06:57:40.955Z,14.60
2022-09-27T07:00:43.614Z,14.93
2022-09-27T07:03:59.809Z,13.45
2022-09-27T07:07:22.428Z,14.88
2022-09-27T07:10:27.743Z,14.07
2022-09-27T07:13:34.435Z,15.13
2022-09-27T07:16:37.284Z,15.60
2022-09-27T07:19:40.393Z,15.60
2022-09-27T07:22:45.487Z,16.17
2022-09-27T07:25:50.625Z,15.17
2022-09-27T07:28:53.933Z,16.55
2022-09-27T07:31:58.829Z,16.88
2022-09-27T07:35:04.590Z,15.38
2022-09-27T07:38:08.834Z,15.38
2022-09-27T07:41:14.814Z,14.67
2022-09-27T07:44:18.499Z,15.57
2022-09-27T07:47:40.343Z,13.27
2022-09-27T07:50:58.039Z,13.52
2022-09-27T07:54:18.004Z,12.45
2022-09-27T07:57:25.710Z,12.20
2022-09-27T08:00:30.079Z,11.88
2022-09-27T08:03:32.511Z,11.77
2022-09-27T08:06:35.234Z,12.10
2022-09-27T08:09:37.621Z,13.38
2022-09-27T08:12:39.959Z,12.73
2022-09-27T08:15:42.309Z,14.27
2022-09-27T08:18:45.213Z,13.60
2022-09-27T08:22:08.348Z,14.05
2022-09-27T08:25:31.499Z,13.38
2022-09-27T08:28:57.052Z,13.13
2022-09-27T08:32:02.119Z,13.75
2022-09-27T08:35:07.392Z,13.25
2022-09-27T08:38:11.382Z,13.90
2022-09-27T08:41:35.469Z,13.45
2022-09-27T08:44:49.219Z,13.60
2022-09-27T08:47:56.791Z,13.50
2022-09-27T08:51:01.662Z,14.43
2022-09-27T08:54:19.465Z,14.23
2022-09-27T08:57:24.400Z,14.65
2022-09-27T09:00:29.076Z,13.33
2022-09-27T09:03:35.610Z,13.00
2022-09-27T09:06:47.118Z,13.68
2022-09-27T09:09:57.544Z,14.25
2022-09-27T09:13:07.830Z,13.85
2022-09-27T09:16:39.982Z,13.10
2022-09-27T09:19:48.550Z,13.80
2022-09-27T09:23:06.590Z,12.80
2022-09-27T09:26:28.227Z,13.68
2022-09-27T09:29:42.351Z,13.77
2022-09-27T09:32:50.747Z,13.97
2022-09-27T09:36:02.372Z,13.65
2022-09-27T09:39:11.146Z,13.52
2022-09-27T09:42:25.575Z,13.90
2022-09-27T09:45:39.848Z,12.88
2022-09-27T09:48:49.993Z,13.13
2022-09-27T09:51:58.776Z,14.02
2022-09-27T09:55:06.366Z,14.85
2022-09-27T09:58:22.191Z,13.10
2022-09-27T10:01:41.623Z,12.35
2022-09-27T10:04:44.340Z,18.87
2022-09-27T10:07:48.038Z,15.23
2022-09-27T10:10:50.735Z,14.57
2022-09-27T10:14:20.930Z,15.13
2022-09-27T10:17:33.351Z,15.40
2022-09-27T10:20:40.096Z,13.43
2022-09-27T10:24:07.464Z,14.35
2022-09-27T10:27:42.160Z,13.23
2022-09-27T10:30:56.183Z,11.77
2022-09-27T10:34:01.737Z,13.23
2022-09-27T10:37:17.624Z,12.23
2022-09-27T10:40:36.896Z,11.32
2022-09-27T10:43:43.110Z,11.57
2022-09-27T10:47:05.738Z,12.05
2022-09-27T10:50:46.000Z,11.20
2022-09-27T10:54:00.414Z,12.47
2022-09-27T10:57:15.684Z,11.93
2022-09-27T11:00:36.238Z,12.02
2022-09-27T11:03:48.291Z,11.48
2022-09-27T11:06:50.860Z,12.07
2022-09-27T11:10:03.870Z,12.43
2022-09-27T11:13:20.096Z,12.27
2022-09-27T11:16:51.337Z,11.90
2022-09-27T11:20:35.543Z,11.18
2022-09-27T11:23:40.948Z,11.55
2022-09-27T11:27:13.001Z,11.77
2022-09-27T11:30:18.240Z,11.00
2022-09-27T11:34:06.741Z,11.98
2022-09-27T11:37:24.699Z,10.65
2022-09-27T11:40:51.971Z,10.45
2022-09-27T11:44:12.307Z,11.53
2022-09-27T11:47:30.307Z,10.80
2022-09-27T11:50:58.145Z,12.30
2022-09-27T11:54:21.290Z,11.07
2022-09-27T11:57:43.751Z,12.00
2022-09-27T12:01:24.735Z,11.50
2022-09-27T12:05:31.325Z,12.13
2022-09-27T12:09:03.089Z,12.02
2022-09-27T12:12:21.525Z,11.55
2022-09-27T12:15:31.025Z,12.32
2022-09-27T12:18:41.116Z,12.40
2022-09-27T12:22:05.153Z,11.60
2022-09-27T12:25:21.033Z,11.18
2022-09-27T12:28:51.316Z,10.82
2022-09-27T12:32:16.093Z,10.93
2022-09-27T12:35:45.580Z,12.07
2022-09-27T12:39:06.449Z,10.30
2022-09-27T12:42:20.550Z,9.93
2022-09-27T12:45:49.747Z,9.43
2022-09-27T12:49:04.910Z,9.73
2022-09-27T12:52:12.406Z,10.17
2022-09-27T12:55:16.265Z,10.68
2022-09-27T12:58:47.825Z,10.18
2022-09-27T13:02:27.783Z,10.13
2022-09-27T13:05:45.197Z,8.80
2022-09-27T13:09:21.167Z,9.20
2022-09-27T13:12:38.517Z,8.10
2022-09-27T13:16:02.425Z,7.80
2022-09-27T13:19:42.970Z,8.13
2022-09-27T13:22:48.463Z,7.85
2022-09-27T13:26:22.443Z,7.97
2022-09-27T13:29:39.025Z,8.10
2022-09-27T13:33:21.708Z,7.32
2022-09-27T13:36:52.450Z,7.25
2022-09-27T13:40:16.782Z,7.15
2022-09-27T13:43:42.015Z,7.07
2022-09-27T13:47:37.721Z,6.70
2022-09-27T13:50:50.839Z,7.55
2022-09-27T13:54:10.101Z,7.65
2022-09-27T13:57:52.663Z,6.97
2022-09-27T14:01:00.909Z,6.83
2022-09-27T14:04:35.503Z,6.30
2022-09-27T14:07:42.166Z,6.38
2022-09-27T14:10:46.005Z,6.68
2022-09-27T14:13:50.274Z,6.90
2022-09-27T14:16:55.386Z,6.13
2022-09-27T14:19:57.689Z,5.97
2022-09-27T14:23:01.534Z,6.15
2022-09-27T14:26:28.101Z,5.60
2022-09-27T14:29:34.350Z,5.95
2022-09-27T14:32:48.163Z,3.13
2022-09-27T14:36:12.689Z,3.33
2022-09-27T14:39:26.385Z,1.40
2022-09-27T14:42:33.027Z,1.35
2022-09-27T14:45:40.207Z,1.55
2022-09-27T14:48:42.687Z,2.20
2022-09-27T14:51:51.251Z,1.60
2022-09-27T14:55:01.521Z,0.80
2022-09-27T14:58:04.753Z,1.33
2022-09-27T15:01:07.119Z,2.80
2022-09-27T15:04:14.088Z,1.93
2022-09-27T15:07:17.211Z,4.43
2022-09-27T15:10:21.249Z,2.03
2022-09-27T15:13:25.421Z,3.80
2022-09-27T15:16:28.088Z,4.38
2022-09-27T15:19:30.580Z,3.60
2022-09-27T15:22:34.458Z,2.45
2022-09-27T15:25:39.124Z,1.23
2022-09-27T15:28:45.854Z,4.82
2022-09-27T15:32:05.166Z,1.08
2022-09-27T15:35:08.661Z,0.80
2022-09-27T15:38:25.969Z,1.27
2022-09-27T15:42:06.379Z,1.45
2022-09-27T15:45:30.956Z,0.68
2022-09-27T15:48:35.451Z,0.55
2022-09-27T15:51:42.577Z,0.53
2022-09-27T15:54:44.875Z,0.50
2022-09-27T15:57:53.406Z,0.50
2022-09-27T16:00:55.741Z,0.50
2022-09-27T16:04:01.250Z,0.77
2022-09-27T16:07:05.023Z,0.60
2022-09-27T16:10:18.770Z,0.60
2022-09-27T16:13:21.829Z,0.80
2022-09-27T16:16:24.113Z,0.70
2022-09-27T16:19:26.646Z,0.80
2022-09-27T16:22:28.834Z,0.80
2022-09-27T16:25:31.220Z,0.60
2022-09-27T16:28:34.076Z,1.00
2022-09-27T16:31:36.326Z,0.60
2022-09-27T16:34:38.811Z,0.77
2022-09-27T16:37:41.402Z,0.50
2022-09-27T16:40:43.654Z,0.77
2022-09-27T16:43:46.848Z,0.73
2022-09-27T16:46:49.733Z,0.60
2022-09-27T16:50:10.642Z,0.70
2022-09-27T16:53:13.708Z,0.90
2022-09-27T16:56:15.913Z,0.82
2022-09-27T16:59:18.124Z,0.70
2022-09-27T17:02:20.338Z,0.82
2022-09-27T17:05:23.178Z,0.90
2022-09-27T17:08:28.420Z,1.63
2022-09-27T17:11:30.891Z,0.98
2022-09-27T17:14:33.187Z,1.00
2022-09-27T17:17:35.415Z,0.82
2022-09-27T17:20:37.633Z,0.80
2022-09-27T17:23:42.602Z,0.90
2022-09-27T17:26:44.907Z,1.25
2022-09-27T17:29:47.210Z,0.88
2022-09-27T17:32:49.652Z,0.77
2022-09-27T17:36:00.175Z,0.90
2022-09-27T17:39:03.346Z,0.77
2022-09-27T17:42:06.712Z,1.10
2022-09-27T17:45:09.436Z,1.23
2022-09-27T17:48:29.949Z,0.85
2022-09-27T17:51:33.885Z,1.33
2022-09-27T17:54:36.526Z,1.13
2022-09-27T17:57:38.721Z,1.10
2022-09-27T18:00:41.316Z,1.05
2022-09-27T18:03:43.969Z,1.00
2022-09-27T18:06:47.242Z,1.20
2022-09-27T18:09:51.135Z,0.90
2022-09-27T18:12:53.740Z,0.93
2022-09-27T18:15:59.760Z,0.90
2022-09-27T18:19:03.937Z,0.60
2022-09-27T18:22:07.476Z,0.90
2022-09-27T18:25:11.549Z,0.97
2022-09-27T18:28:13.974Z,1.10
2022-09-27T18:31:17.851Z,1.20
2022-09-27T18:34:20.399Z,0.90
2022-09-27T18:37:22.642Z,1.50
2022-09-27T18:40:51.363Z,1.40
2022-09-27T18:43:48.438Z,1.90
2022-09-27T18:46:51.014Z,1.95
2022-09-27T18:49:53.227Z,1.40
2022-09-27T18:52:55.714Z,1.90
2022-09-27T18:56:02.864Z,2.00
2022-09-27T18:59:09.314Z,2.17
2022-09-27T19:02:11.689Z,2.20
2022-09-27T19:05:13.979Z,2.38
2022-09-27T19:08:16.230Z,2.17
2022-09-27T19:11:18.659Z,2.20
2022-09-27T19:14:22.642Z,2.40
2022-09-27T19:17:24.927Z,2.58
2022-09-27T19:20:27.125Z,2.60
2022-09-27T19:23:29.991Z,2.58
2022-09-27T19:26:32.196Z,2.27
2022-09-27T19:29:36.420Z,2.47
2022-09-27T19:32:38.606Z,2.40
2022-09-27T19:35:40.903Z,2.47
2022-09-27T19:38:43.495Z,2.40
2022-09-27T19:41:45.797Z,2.43
2022-09-27T19:44:48.106Z,2.40
2022-09-27T19:47:50.714Z,2.45
2022-09-27T19:50:57.187Z,2.75
2022-09-27T19:53:59.535Z,2.45
2022-09-27T19:57:01.811Z,2.80
2022-09-27T20:00:04.853Z,3.80
2022-09-27T20:03:07.069Z,2.75
2022-09-27T20:06:12.179Z,2.70
2022-09-27T20:09:14.753Z,2.60
2022-09-27T20:12:16.952Z,2.43
2022-09-27T20:15:19.318Z,2.65
2022-09-27T20:18:21.890Z,3.00
2022-09-27T20:21:26.962Z,3.00
2022-09-27T20:24:29.157Z,2.60
2022-09-27T20:27:31.365Z,2.77
2022-09-27T20:30:33.616Z,2.42
2022-09-27T20:33:41.966Z,2.40
2022-09-27T20:36:45.182Z,2.20
2022-09-27T20:39:47.475Z,2.83
2022-09-27T20:42:49.763Z,2.10
2022-09-27T20:45:52.538Z,2.28
2022-09-27T20:48:57.271Z,2.28
2022-09-27T20:52:00.028Z,2.45
2022-09-27T20:55:03.056Z,2.08
2022-09-27T20:58:05.341Z,2.40
2022-09-27T21:01:07.737Z,2.30
2022-09-27T21:04:10.617Z,2.00
2022-09-27T21:07:13.461Z,2.17
2022-09-27T21:10:15.786Z,1.85
2022-09-27T21:13:18.055Z,1.80
2022-09-27T21:16:26.979Z,2.05
2022-09-27T21:19:29.707Z,1.83
2022-09-27T21:22:32.017Z,1.90
2022-09-27T21:25:34.266Z,1.55
2022-09-27T21:28:38.769Z,1.53
2022-09-27T21:31:42.917Z,1.00
2022-09-27T21:34:45.264Z,1.10
2022-09-27T21:37:47.652Z,0.95
2022-09-27T21:41:03.707Z,0.80
2022-09-27T21:44:06.721Z,1.10
2022-09-27T21:47:09.115Z,0.80
2022-09-27T21:50:11.821Z,0.82
2022-09-27T21:53:14.189Z,0.77
2022-09-27T21:56:16.869Z,0.60
2022-09-27T21:59:19.254Z,0.70
2022-09-27T22:02:21.710Z,0.85
2022-09-27T22:05:24.108Z,0.55
2022-09-27T22:08:27.993Z,0.70
2022-09-27T22:11:32.774Z,0.50
2022-09-27T22:14:35.209Z,0.50
2022-09-27T22:17:37.495Z,0.65
2022-09-27T22:20:40.252Z,0.70
2022-09-27T22:23:42.576Z,0.63
2022-09-27T22:26:49.862Z,0.60
2022-09-27T22:29:53.065Z,0.77
2022-09-27T22:32:55.370Z,0.60
2022-09-27T22:35:57.641Z,0.70
2022-09-27T22:39:00.088Z,0.50
2022-09-27T22:42:02.326Z,0.63
2022-09-27T22:45:05.476Z,0.47
2022-09-27T22:48:07.699Z,0.25
2022-09-27T22:51:10.041Z,0.50
2022-09-27T22:54:12.382Z,0.38
2022-09-27T22:57:15.062Z,0.47
2022-09-27T23:00:17.422Z,0.37
2022-09-27T23:03:23.226Z,0.40
2022-09-27T23:06:25.527Z,0.35
2022-09-27T23:09:27.781Z,0.30
2022-09-27T23:12:31.156Z,0.30
2022-09-27T23:15:33.454Z,0.30
2022-09-27T23:18:37.279Z,0.40
2022-09-27T23:21:39.535Z,0.28
2022-09-27T23:24:41.833Z,0.35
2022-09-27T23:27:47.061Z,0.38
2022-09-27T23:30:49.296Z,0.40
2022-09-27T23:33:52.161Z,0.15
2022-09-27T23:36:55.639Z,0.17
2022-09-27T23:40:00.149Z,0.20
2022-09-27T23:43:03.116Z,0.30
2022-09-27T23:46:06.682Z,0.30
2022-09-27T23:49:09.314Z,0.10
2022-09-27T23:52:11.567Z,0.20
2022-09-27T23:55:13.889Z,0.10
2022-09-27T23:58:17.488Z,0.20
